Latest Weather Observations for Cressy

IDT60801

Issued at 6:02 am EDT Saturday 10 December 2016 (issued every 30 minutes, with the page automatically refreshed every 10 minutes)

About weather observations | Map of weather stations | Latest weather observations for TAS | Other Formats
Station Details ID: 091306 Name: CRESSY RESEARCH STATION Lat: -41.73 Lon: 147.08 Height: 148.0 m
Data from the previous 72 hours. | See also: Recent months at Cressy
Date/Time
EDT
Temp
°C
App
Temp
°C
Dew
Point
°C
Rel
Hum
%
Delta-T
°C
Wind Press
QNH
hPa
Press
MSL
hPa
Rain since
9am
mm
Dir  Spd
km/h
Gust
km/h
Spd
kts
Gust
kts
10/05:30am 5.3 2.8 3.8 90 0.6 NNE 6 9 3 5 - - 0.0
10/05:00am 5.6 2.9 3.6 87 0.8 NNE 7 9 4 5 - - 0.0
10/04:30am 6.0 3.3 3.8 86 0.9 N 7 11 4 6 - - 0.0
10/04:00am 6.1 2.7 3.8 85 1.0 NNE 11 15 6 8 - - 0.0
10/03:30am 5.6 2.1 3.6 87 0.8 NNE 11 15 6 8 - - 0.0
10/03:00am 5.5 2.5 4.0 90 0.6 NE 9 11 5 6 - - 0.0
10/02:30am 5.2 2.5 3.7 90 0.6 NNE 7 9 4 5 - - 0.0
10/02:00am 5.7 4.4 4.2 90 0.6 CALM 0 0 0 0 - - 0.0
10/01:30am 5.3 3.9 3.3 87 0.8 CALM 0 0 0 0 - - 0.0
10/01:00am 5.3 3.9 3.3 87 0.8 CALM 0 0 0 0 - - 0.0
10/12:30am 6.5 4.8 4.0 84 1.1 SE 2 9 1 5 - - 0.0
10/12:00am 7.3 4.6 3.9 79 1.5 NE 7 9 4 5 - - 0.0
 
Date/Time
EDT
Temp
°C
App
Temp
°C
Dew
Point
°C
Rel
Hum
%
Delta-T
°C
Wind Press
QNH
hPa
Press
MSL
hPa
Rain since
9am
mm
Dir  Spd
km/h
Gust
km/h
Spd
kts
Gust
kts
09/11:30pm 7.5 5.0 3.6 76 1.7 E 6 9 3 5 - - 0.0
09/11:00pm 8.9 6.1 3.3 68 2.4 NW 7 11 4 6 - - 0.0
09/10:30pm 10.3 7.0 2.7 59 3.3 SW 9 15 5 8 - - 0.0
09/10:00pm 9.5 7.0 4.5 71 2.2 W 7 11 4 6 - - 0.0
09/09:30pm 9.4 6.8 4.0 69 2.4 E 7 11 4 6 - - 0.0
09/09:00pm 10.6 7.5 3.6 62 3.1 SW 9 15 5 8 - - 0.0
09/08:30pm 11.3 8.5 3.3 58 3.5 S 7 15 4 8 - - 0.0
09/08:00pm 12.0 7.3 3.3 55 3.9 WSW 17 24 9 13 - - 0.0
09/07:30pm 12.5 6.8 2.9 52 4.3 WSW 22 30 12 16 - - 0.0
09/07:00pm 13.6 8.0 3.7 51 4.5 W 22 32 12 17 - - 0.0
09/06:30pm 14.0 8.6 2.6 46 5.1 W 20 30 11 16 - - 0.0
09/06:00pm 15.0 8.9 2.9 44 5.5 W 24 37 13 20 - - 0.0
09/05:44pm 15.3 8.6 3.5 45 5.4 W 28 39 15 21 - - 0.0
09/05:30pm 16.0 10.7 2.1 39 6.2 SSW 19 39 10 21 - - 0.0
09/05:00pm 16.8 12.0 2.4 38 6.6 SW 17 26 9 14 - - 0.0
09/04:30pm 17.0 11.8 2.6 38 6.6 SW 19 32 10 17 - - 0.0
09/04:00pm 16.0 10.3 2.8 41 6.0 WSW 22 37 12 20 - - 0.0
09/03:30pm 16.9 11.8 4.3 43 6.0 SW 20 33 11 18 - - 0.0
09/03:00pm 16.6 11.9 3.3 41 6.2 SSW 17 39 9 21 - - 0.0
09/02:30pm 16.3 11.1 3.4 42 6.0 WSW 20 30 11 16 - - 0.0
09/02:00pm 15.4 9.0 1.2 38 6.2 WSW 24 37 13 20 - - 0.0
09/01:30pm 15.1 8.2 2.6 43 5.6 WSW 28 44 15 24 - - 0.0
09/01:00pm 15.1 9.3 2.3 42 5.7 WSW 22 39 12 21 - - 0.0
09/12:30pm 14.6 8.4 2.2 43 5.5 WSW 24 35 13 19 - - 0.0
09/12:00pm 15.1 9.9 3.3 45 5.4 SSW 20 32 11 17 - - 0.0
09/11:30am 13.9 7.6 1.5 43 5.4 WSW 24 41 13 22 - - 0.0
09/11:00am 12.8 7.0 -0.4 40 5.5 SW 20 39 11 21 - - 0.0
09/10:30am 12.9 5.7 1.0 44 5.1 SSW 28 46 15 25 - - 0.0
09/10:22am 12.8 5.6 0.9 44 5.1 SW 28 48 15 26 - - 0.0
09/10:00am 12.7 6.4 1.7 47 4.8 SSW 24 46 13 25 - - 0.0
09/09:30am 11.8 4.3 0.9 47 4.6 SSW 30 48 16 26 - - 0.0
09/09:00am 11.3 4.0 0.1 46 4.6 SSW 28 46 15 25 - - 19.0
09/08:30am 11.3 3.2 -0.2 45 4.7 SW 32 54 17 29 - - 19.0
09/08:00am 10.7 2.4 -0.4 46 4.5 SW 33 57 18 31 - - 19.0
09/07:30am 10.2 2.1 -0.6 47 4.3 SSW 32 50 17 27 - - 19.0
09/07:24am 10.1 2.7 -0.4 48 4.2 SSW 28 48 15 26 - - 19.0
09/07:00am 9.0 4.2 0.5 55 3.4 S 15 35 8 19 - - 19.0
09/06:30am 8.9 4.9 0.6 56 3.4 ENE 11 19 6 10 - - 19.0
09/06:00am 7.7 4.4 0.2 59 3.0 ESE 7 15 4 8 - - 19.0
09/05:30am 8.8 4.7 0.0 54 3.5 SSW 11 20 6 11 - - 19.0
09/05:00am 6.9 3.3 0.4 63 2.6 SE 9 15 5 8 - - 19.0
09/04:30am 9.6 3.9 0.5 53 3.7 WSW 20 33 11 18 - - 19.0
09/04:03am 10.5 3.7 0.5 50 4.1 WSW 26 48 14 26 - - 19.0
09/04:00am 10.5 4.4 0.5 50 4.1 SW 22 41 12 22 - - 19.0
09/03:57am 10.5 4.0 0.5 50 4.1 SW 24 41 13 22 - - 19.0
09/03:52am 10.3 3.1 0.6 51 4.0 SW 28 56 15 30 - - 19.0
09/03:45am 10.8 4.3 0.5 49 4.3 SW 24 56 13 30 - - 19.0
09/03:30am 10.6 6.4 1.7 54 3.8 WSW 13 24 7 13 - - 19.0
09/03:00am 11.1 6.2 1.9 53 3.9 WSW 17 32 9 17 - - 19.0
09/02:30am 11.3 5.1 2.1 53 4.0 W 24 41 13 22 - - 19.0
09/02:00am 11.4 4.8 2.2 53 4.0 WSW 26 52 14 28 - - 19.0
09/01:30am 11.6 4.7 2.6 54 3.9 SW 28 54 15 29 - - 19.0
09/01:20am 11.8 4.9 2.5 53 4.1 WSW 28 56 15 30 - - 19.0
09/01:00am 11.9 5.8 2.9 54 4.0 WSW 24 43 13 23 - - 19.0
09/12:30am 12.3 6.8 3.8 56 3.8 WSW 22 32 12 17 - - 19.0
09/12:00am 12.6 7.6 4.6 58 3.7 WSW 20 35 11 19 - - 19.0
 
Date/Time
EDT
Temp
°C
App
Temp
°C
Dew
Point
°C
Rel
Hum
%
Delta-T
°C
Wind Press
QNH
hPa
Press
MSL
hPa
Rain since
9am
mm
Dir  Spd
km/h
Gust
km/h
Spd
kts
Gust
kts
08/11:30pm 13.6 8.8 4.7 55 4.1 WSW 19 28 10 15 - - 19.0
08/11:00pm 14.1 10.2 5.2 55 4.2 WSW 15 30 8 16 - - 19.0
08/10:30pm 13.2 6.9 7.4 68 2.9 NW 30 46 16 25 - - 19.0
08/10:00pm 12.7 6.5 8.0 73 2.3 NNW 30 41 16 22 - - 19.0
08/09:30pm 12.5 6.0 8.2 75 2.1 N 32 46 17 25 - - 19.0
08/09:00pm 12.6 6.3 8.9 78 1.9 N 32 44 17 24 - - 19.0
08/08:30pm 12.8 4.8 8.9 77 2.0 NNW 41 65 22 35 - - 19.0
08/08:21pm 12.9 4.5 9.0 77 2.0 NNW 43 65 23 35 - - 19.0
08/08:00pm 13.5 5.9 9.2 75 2.2 NNW 39 52 21 28 - - 19.0
08/07:31pm 13.6 5.3 9.5 76 2.1 NNW 43 61 23 33 - - 19.0
08/07:30pm 13.6 5.2 9.5 76 2.1 NNW 44 61 24 33 - - 19.0
08/07:11pm 14.2 5.6 9.0 71 2.7 NNW 44 63 24 34 - - 19.0
08/07:00pm 14.5 6.6 9.3 71 2.7 NNW 41 52 22 28 - - 19.0
08/06:46pm 14.7 8.6 9.9 73 2.5 NW 32 50 17 27 - - 19.0
08/06:30pm 14.7 8.0 11.1 79 1.9 NNW 37 54 20 29 - - 19.0
08/06:10pm 14.7 7.3 11.3 80 1.8 NNW 41 59 22 32 - - 19.0
08/06:00pm 14.6 6.8 11.0 79 1.9 N 43 56 23 30 - - 19.0
08/05:30pm 13.9 6.9 11.1 83 1.5 NNW 39 57 21 31 - - 19.0
08/05:00pm 13.3 6.2 11.0 86 1.2 NNW 39 59 21 32 - - 19.0
08/04:56pm 13.6 6.1 10.8 83 1.5 NNW 41 59 22 32 - - 19.0
08/04:30pm 14.3 6.6 10.3 77 2.1 NNW 41 57 22 31 - - 19.0
08/04:13pm 14.7 6.6 9.9 73 2.5 NNW 43 61 23 33 - - 19.0
08/04:00pm 14.4 6.2 9.6 73 2.5 NNW 43 59 23 32 - - 19.0
08/03:30pm 15.2 6.8 9.6 69 2.9 NNW 44 65 24 35 - - 19.0
08/03:03pm 16.1 7.2 10.6 70 2.9 NNW 48 67 26 36 - - 19.0
08/03:00pm 16.1 6.7 10.2 68 3.1 NNW 50 67 27 36 - - 19.0
08/02:30pm 16.7 7.0 10.3 66 3.4 NNW 52 72 28 39 - - 19.0
08/02:00pm 16.2 7.6 11.8 75 2.4 NNW 48 69 26 37 - - 19.0
08/01:49pm 15.3 9.6 13.0 86 1.3 NNW 35 56 19 30 - - 19.0
08/01:30pm 14.1 7.8 12.3 89 1.0 NNW 37 50 20 27 - - 19.0
08/01:00pm 14.6 8.3 13.5 93 0.6 NNW 39 65 21 35 - - 18.8
08/12:30pm 14.9 10.4 13.9 94 0.6 N 30 48 16 26 - - 18.0
08/12:28pm 14.8 10.7 13.8 94 0.6 N 28 48 15 26 - - 18.0
08/12:00pm 14.8 9.9 13.8 94 0.6 N 32 46 17 25 - - 17.0
08/11:30am 14.9 10.0 13.8 93 0.6 N 32 52 17 28 - - 15.8
08/11:23am 14.8 10.7 13.8 94 0.6 N 28 48 15 26 - - 15.6
08/11:00am 14.9 12.0 13.9 94 0.6 N 22 35 12 19 - - 11.6
08/10:59am 14.9 12.0 13.9 94 0.6 N 22 35 12 19 - - 11.0
08/10:30am 13.4 12.5 12.6 95 0.4 NNE 9 11 5 6 - - 6.8
08/10:00am 12.7 11.6 12.1 96 0.3 NNW 9 26 5 14 - - 3.6
08/09:30am 11.7 10.3 10.9 95 0.4 SSW 9 13 5 7 - - 2.2
08/09:00am 11.5 11.3 10.4 93 0.6 SSE 2 7 1 4 - - 7.0
08/08:30am 11.5 10.9 10.4 93 0.6 WSW 4 7 2 4 - - 4.4
08/08:00am 11.3 10.2 10.0 92 0.7 NW 6 9 3 5 - - 3.0
08/07:30am 11.3 9.9 9.7 90 0.8 N 7 9 4 5 - - 1.0
08/07:00am 11.4 10.1 9.3 87 1.1 NNW 6 9 3 5 - - 0.4
08/06:30am 11.6 9.9 8.5 81 1.5 NNW 7 9 4 5 - - 0.0
08/06:00am 11.9 9.3 7.6 75 2.1 WNW 11 15 6 8 - - 0.0
08/05:30am 12.1 9.1 7.8 75 2.1 WNW 13 15 7 8 - - 0.0
08/05:00am 12.0 9.1 8.1 77 1.9 WNW 13 17 7 9 - - 0.0
08/04:30am 12.0 8.8 8.3 78 1.8 NW 15 22 8 12 - - 0.0
08/04:00am 11.2 8.1 8.8 85 1.2 WNW 15 19 8 10 - - 0.0
08/03:30am 10.9 8.3 9.2 89 0.9 WNW 13 17 7 9 - - 0.0
08/03:00am 11.6 8.0 9.7 88 1.0 NW 19 26 10 14 - - 0.0
08/02:30am 11.5 7.9 10.4 93 0.6 NW 20 28 11 15 - - 0.0
08/02:00am 10.8 8.1 10.2 96 0.3 WNW 15 22 8 12 - - 0.0
08/01:30am 9.8 8.9 9.2 96 0.3 NW 4 9 2 5 - - 0.0
08/01:00am 9.2 7.1 8.4 95 0.4 NNW 9 13 5 7 - - 0.0
08/12:30am 9.8 8.3 9.0 95 0.4 N 7 9 4 5 - - 0.0
08/12:00am 9.4 9.0 8.2 92 0.6 CALM 0 0 0 0 - - 0.0
 
Date/Time
EDT
Temp
°C
App
Temp
°C
Dew
Point
°C
Rel
Hum
%
Delta-T
°C
Wind Press
QNH
hPa
Press
MSL
hPa
Rain since
9am
mm
Dir  Spd
km/h
Gust
km/h
Spd
kts
Gust
kts
07/11:30pm 10.3 8.8 9.1 92 0.6 NW 7 9 4 5 - - 0.0
07/11:00pm 10.9 10.0 9.2 89 0.9 NNW 4 9 2 5 - - 0.0
07/10:30pm 11.5 9.4 9.6 88 1.0 NNE 11 15 6 8 - - 0.0
07/10:00pm 12.4 9.6 10.0 85 1.2 N 15 20 8 11 - - 0.0
07/09:30pm 13.1 9.6 10.3 83 1.5 N 19 26 10 14 - - 0.0
07/09:00pm 13.5 10.0 10.1 80 1.8 N 19 26 10 14 - - 0.0
07/08:30pm 14.0 11.0 10.6 80 1.8 N 17 24 9 13 - - 0.0
07/08:00pm 14.6 11.0 10.6 77 2.1 NNW 20 32 11 17 - - 0.0
07/07:30pm 15.3 11.0 10.7 74 2.5 N 24 32 13 17 - - 0.0
07/07:00pm 15.7 10.6 10.7 72 2.7 NNW 28 39 15 21 - - 0.0
07/06:30pm 16.6 11.6 11.1 70 3.0 NNW 28 43 15 23 - - 0.0
07/06:00pm 16.7 12.1 11.2 70 3.0 NNW 26 37 14 20 - - 0.0
07/05:30pm 16.9 12.0 11.4 70 3.0 NW 28 41 15 22 - - 0.0
07/05:00pm 16.7 10.9 10.8 68 3.2 NW 32 44 17 24 - - 0.0
07/04:30pm 16.4 9.9 10.5 68 3.2 NW 35 48 19 26 - - 0.0
07/04:00pm 16.7 9.7 10.1 65 3.5 NW 37 50 20 27 - - 0.0
07/03:30pm 17.1 9.9 10.5 65 3.5 NNW 39 50 21 27 - - 0.0
07/03:00pm 17.0 9.8 10.4 65 3.5 NNW 39 52 21 28 - - 0.0
07/02:30pm 18.1 12.0 10.5 61 4.1 NNW 33 46 18 25 - - 0.0
07/02:00pm 18.4 12.0 9.5 56 4.7 NW 33 48 18 26 - - 0.0
07/01:30pm 18.8 12.5 9.8 56 4.8 NNW 33 44 18 24 - - 0.0
07/01:00pm 18.3 12.0 8.8 54 5.0 NNW 32 46 17 25 - - 0.0
07/12:30pm 18.1 11.9 9.2 56 4.7 NNW 32 43 17 23 - - 0.0
07/12:00pm 17.5 10.9 7.8 53 4.9 NNW 32 41 17 22 - - 0.0
07/11:30am 17.6 11.7 9.0 57 4.5 NW 30 43 16 23 - - 0.0
07/11:00am 17.4 11.4 8.5 56 4.6 NNW 30 39 16 21 - - 0.0
07/10:30am 17.6 12.3 8.5 55 4.7 NNW 26 35 14 19 - - 0.0
07/10:00am 16.6 12.4 8.1 57 4.3 NNW 20 30 11 16 - - 0.0
07/09:30am 15.3 10.9 7.6 60 3.9 NNW 20 26 11 14 - - 0.0
07/09:00am 14.8 11.4 7.6 62 3.6 NW 15 20 8 11 - - 0.0
07/08:30am 12.3 9.6 7.4 72 2.4 N 11 13 6 7 - - 0.0
07/08:00am 11.5 8.9 7.6 77 1.9 NW 11 17 6 9 - - 0.0
07/07:30am 10.7 8.0 7.4 80 1.6 NNW 11 15 6 8 - - 0.0
07/07:00am 9.5 7.7 7.1 85 1.1 ENE 6 7 3 4 - - 0.0
07/06:30am 7.1 5.0 5.6 90 0.7 S 6 9 3 5 - - 0.0

Other Formats:

Comma delimited format used in spreadsheet applications
http://www.bom.gov.au/fwo/IDT60801/IDT60801.95969.axf

JavaScript Object Notation format (JSON) in row-major order
http://www.bom.gov.au/fwo/IDT60801/IDT60801.95969.json